Airfield :
LOGIN :

Register | Disclaimer

   EN    FR    IT 

 










Legend :    VFR   Marginal VFR   IFR   Intensive IFR   Very Intensive IFR
Visi :
Ceiling :
>= 8 km
>= 3000ft
5 to 8 km
1000 to 3000 ft
1500m to 5 km
500 to 1000 ft
800 to 1500m
200 to 500 ft
< 800m
< 200 ft
Symbols :   Thunderstorms  Fog  Heavy snow  Heavy precipitations  Wind > 20 kt
SIGMETs :     Misc.  Thunderstorms  Icing  Turbulence  Mountain Waves  Volcanic Ashes






- Airport Elevation : 126 ft
- IATA code : WIC


EGPC - Wick

CURRENT METAR :
  • 021250Z 22010KT 180V250 9999 FEW016CB 06/02 Q1005

EXPIRED METARs :
  • 021220Z 21010KT 180V250 9999 FEW016CB 06/02 Q1005
  • 021150Z 21011KT 9999 FEW016CB 06/02 Q1005
  • 021120Z 23014KT 9999 FEW016 05/01 Q1006
  • 021050Z 22010KT 9999 FEW020 05/01 Q1007
  • 021020Z 21008KT 180V250 9999 FEW020 05/02 Q1008
  • 020950Z 23009KT 9999 FEW020 04/02 Q1008

TAF TAF EGPC
Valid from the 02 at 12:00 until the 02 at 21:00 UTC


021058Z 0212/0221 24009KT 9999 FEW020
PROB40
TEMPO 0212/0221 25015G25KT 6000 SHRA BKN014
ATIS : +44 1955 607 596



MET'MAP, your aeronautical weather chart ! - Copyright ORBIFLY December 2007 - Disclaimer

ORBIFLY MET'MAP TEAM :

Programming & Development : Alexandra Zaïnal
Concept & original design : Baudouin d'Aumeries
Assistance for programming : Marc-Olivier Méhu
Technical & hardware support : Manuel Goepfert

Contact : metmap@orbifly.com




SOURCES & CREDITS :

   NOAA